Time;durP1;ratioP1;P1;durP2;ratioP2;P2;SDS_P1;SDS_P2;PMS_P1;PMS_P2;Temp;Humidity;BMP_temperature;BMP_pressure;BME280_temperature;BME280_humidity;BME280_pressure;Samples;Min_cycle;Max_cycle;Signal;HPM_P1;HPM_P2
2023/07/25 00:02:24;;;;;;;8.25;5.40;;;20.20;55.90;;;;;;4945083;28;20420;-47
2023/07/25 00:04:51;;;;;;;8.50;6.10;;;20.10;55.90;;;;;;4947125;28;20047;-46
2023/07/25 00:07:18;;;;;;;9.05;5.93;;;20.10;56.00;;;;;;4948539;28;20051;-45
2023/07/25 00:09:45;;;;;;;8.27;5.78;;;20.10;56.00;;;;;;4947561;28;20066;-46
2023/07/25 00:12:13;;;;;;;9.98;5.90;;;20.00;56.10;;;;;;4946230;28;20055;-46
2023/07/25 00:14:40;;;;;;;7.30;5.90;;;20.00;56.20;;;;;;4947806;28;20437;-45
2023/07/25 00:17:08;;;;;;;8.20;5.57;;;20.00;56.30;;;;;;4944932;28;20047;-45
2023/07/25 00:19:36;;;;;;;6.28;5.25;;;20.00;56.40;;;;;;4945263;28;20066;-48
2023/07/25 00:22:03;;;;;;;6.13;4.63;;;20.00;56.40;;;;;;4946571;28;20059;-48
2023/07/25 00:24:30;;;;;;;7.35;5.50;;;19.90;56.40;;;;;;4945903;28;20059;-47
2023/07/25 00:26:57;;;;;;;5.55;4.80;;;19.90;56.60;;;;;;4944355;28;20051;-47
2023/07/25 00:29:25;;;;;;;8.05;5.30;;;19.90;56.60;;;;;;4946458;28;20063;-48
2023/07/25 00:31:52;;;;;;;7.75;4.93;;;19.90;56.60;;;;;;4943344;28;20066;-49
2023/07/25 00:34:20;;;;;;;8.70;6.68;;;20.00;56.70;;;;;;4946056;28;20051;-45
2023/07/25 00:36:48;;;;;;;7.93;5.35;;;19.90;56.70;;;;;;4944013;28;20605;-45
2023/07/25 00:39:15;;;;;;;7.90;6.00;;;20.00;56.80;;;;;;4945909;28;20070;-50
2023/07/25 00:41:42;;;;;;;8.95;6.63;;;19.90;56.80;;;;;;4945062;28;20055;-45
2023/07/25 00:44:09;;;;;;;11.10;7.88;;;19.90;57.00;;;;;;4944808;28;20063;-46
2023/07/25 00:46:37;;;;;;;10.85;6.45;;;19.90;57.10;;;;;;4942944;28;20059;-46
2023/07/25 00:49:06;;;;;;;11.93;6.30;;;19.90;57.30;;;;;;4946054;28;20171;-46
2023/07/25 00:51:35;;;;;;;9.60;6.15;;;19.80;57.80;;;;;;4945222;28;20047;-45
2023/07/25 00:54:02;;;;;;;11.43;7.13;;;19.70;57.50;;;;;;4945833;28;20047;-47
2023/07/25 00:56:30;;;;;;;9.93;6.68;;;19.70;57.60;;;;;;4945084;28;20051;-45
2023/07/25 00:58:57;;;;;;;8.35;6.50;;;19.70;57.80;;;;;;4945550;28;20510;-45
2023/07/25 01:01:27;;;;;;;11.77;6.38;;;19.60;57.90;;;;;;4943914;28;20050;-53
2023/07/25 01:03:55;;;;;;;11.48;7.47;;;19.60;58.10;;;;;;4988064;23;20057;-43
2023/07/25 01:06:22;;;;;;;11.65;7.53;;;19.50;58.20;;;;;;4984600;28;20062;-43
2023/07/25 01:08:52;;;;;;;10.23;7.15;;;19.50;58.40;;;;;;4984061;28;20058;-44
2023/07/25 01:11:20;;;;;;;13.38;7.32;;;19.40;58.50;;;;;;4986430;28;20061;-45
2023/07/25 01:13:48;;;;;;;10.10;7.50;;;19.40;58.60;;;;;;4985572;28;20058;-52
2023/07/25 01:16:24;;;;;;;10.23;7.78;;;19.40;58.80;;;;;;4984249;28;20513;-49
2023/07/25 01:18:52;;;;;;;13.32;8.30;;;19.30;58.90;;;;;;4983754;28;20512;-50
2023/07/25 01:21:21;;;;;;;10.95;7.65;;;19.30;59.10;;;;;;4984734;28;20055;-43
2023/07/25 01:23:49;;;;;;;8.65;6.68;;;19.30;59.20;;;;;;4984953;28;20050;-43
2023/07/25 01:26:18;;;;;;;9.70;7.03;;;19.20;59.30;;;;;;4984859;28;20047;-45
2023/07/25 01:28:46;;;;;;;13.13;8.00;;;19.20;59.50;;;;;;4986109;28;20061;-44
2023/07/25 01:31:13;;;;;;;10.20;7.72;;;19.20;59.60;;;;;;4983481;28;20062;-44
2023/07/25 01:33:40;;;;;;;12.10;7.63;;;19.20;59.70;;;;;;4985496;28;20054;-50
2023/07/25 01:36:07;;;;;;;12.25;7.20;;;19.20;59.80;;;;;;4986433;28;20053;-53
2023/07/25 01:38:34;;;;;;;11.98;7.47;;;19.10;59.40;;;;;;4985613;28;20553;-47
2023/07/25 01:41:02;;;;;;;11.43;7.13;;;19.10;59.90;;;;;;4983980;28;20054;-50
2023/07/25 01:43:30;;;;;;;11.48;8.25;;;19.10;59.90;;;;;;4984919;28;20065;-49
2023/07/25 01:45:57;;;;;;;10.02;8.05;;;19.10;59.90;;;;;;4983660;28;20486;-50
2023/07/25 01:48:25;;;;;;;15.00;8.68;;;19.10;60.00;;;;;;4984250;28;20059;-48
2023/07/25 01:50:52;;;;;;;11.25;7.28;;;19.00;60.00;;;;;;4984882;28;20054;-47
2023/07/25 01:53:19;;;;;;;15.13;8.07;;;19.10;60.00;;;;;;4984432;28;20413;-45
2023/07/25 01:55:46;;;;;;;8.70;6.68;;;19.10;60.00;;;;;;4984735;28;20064;-44
2023/07/25 01:58:13;;;;;;;12.90;8.48;;;19.10;60.00;;;;;;4985706;28;20060;-43
2023/07/25 02:00:42;;;;;;;16.50;10.30;;;19.10;60.30;;;;;;4982638;28;20058;-45
2023/07/25 02:03:10;;;;;;;11.45;9.48;;;19.10;60.50;;;;;;4984173;28;20410;-46
2023/07/25 02:05:37;;;;;;;15.65;9.15;;;19.10;60.40;;;;;;4983206;28;20113;-44
2023/07/25 02:08:05;;;;;;;21.20;14.60;;;19.00;60.50;;;;;;4983857;28;20241;-44
2023/07/25 02:10:32;;;;;;;21.90;15.13;;;19.00;60.60;;;;;;4983881;28;20054;-44
2023/07/25 02:13:00;;;;;;;21.92;16.13;;;19.00;60.60;;;;;;4984075;28;20061;-43
2023/07/25 02:15:27;;;;;;;21.85;15.68;;;18.90;60.70;;;;;;4982987;28;20077;-43
2023/07/25 02:17:55;;;;;;;23.17;13.75;;;18.90;60.90;;;;;;4983158;28;20053;-45
2023/07/25 02:20:25;;;;;;;21.85;15.60;;;18.80;61.00;;;;;;4984389;28;20070;-46
2023/07/25 02:22:53;;;;;;;22.98;16.38;;;18.80;61.30;;;;;;4984131;28;20054;-44
2023/07/25 02:25:21;;;;;;;19.33;13.90;;;18.80;61.40;;;;;;4983229;28;20073;-45
2023/07/25 02:27:48;;;;;;;20.45;14.73;;;18.80;61.40;;;;;;4983679;28;20051;-45
2023/07/25 02:30:15;;;;;;;21.48;15.25;;;18.80;61.60;;;;;;4983357;28;20497;-43
2023/07/25 02:32:43;;;;;;;27.17;17.45;;;18.70;61.50;;;;;;4982289;28;20518;-44
2023/07/25 02:35:11;;;;;;;25.42;15.68;;;18.70;61.30;;;;;;4982337;28;20066;-44
2023/07/25 02:37:38;;;;;;;20.35;15.70;;;18.70;61.40;;;;;;4983280;28;20046;-45
2023/07/25 02:40:07;;;;;;;20.08;14.32;;;18.60;61.40;;;;;;4983858;28;20073;-44
2023/07/25 02:42:35;;;;;;;24.35;14.02;;;18.60;61.60;;;;;;4983016;28;20050;-42
2023/07/25 02:45:02;;;;;;;25.30;13.10;;;18.50;61.70;;;;;;4983357;28;20057;-43
2023/07/25 02:47:29;;;;;;;21.48;13.32;;;18.50;61.80;;;;;;4983021;28;20046;-50
2023/07/25 02:49:57;;;;;;;15.45;11.20;;;18.40;61.80;;;;;;4982873;28;20046;-47
2023/07/25 02:52:25;;;;;;;16.75;11.35;;;18.40;62.00;;;;;;4983268;28;20387;-47
2023/07/25 02:54:52;;;;;;;15.30;11.07;;;18.40;62.20;;;;;;4983493;28;21280;-45
2023/07/25 02:57:20;;;;;;;14.13;10.80;;;18.30;62.20;;;;;;4983080;28;20058;-44
2023/07/25 02:59:47;;;;;;;17.48;10.80;;;18.30;63.10;;;;;;4982919;28;20050;-44
2023/07/25 03:02:14;;;;;;;15.30;11.07;;;18.30;62.30;;;;;;4981777;28;20413;-44
2023/07/25 03:04:41;;;;;;;25.85;11.27;;;18.20;62.30;;;;;;4982204;28;20069;-44
2023/07/25 03:07:08;;;;;;;16.35;10.40;;;18.30;62.40;;;;;;4982944;28;20410;-44
2023/07/25 03:09:40;;;;;;;15.82;9.75;;;18.20;62.30;;;;;;4982142;28;20053;-45
2023/07/25 03:12:07;;;;;;;16.08;9.27;;;18.30;62.20;;;;;;4981721;28;20426;-44
2023/07/25 03:14:35;;;;;;;13.45;8.70;;;18.20;62.00;;;;;;4982314;28;20413;-46
2023/07/25 03:17:02;;;;;;;12.23;9.27;;;18.20;62.00;;;;;;4981606;28;20049;-44
2023/07/25 03:19:29;;;;;;;13.32;9.27;;;18.20;62.00;;;;;;4983719;28;20065;-44
2023/07/25 03:21:57;;;;;;;11.40;8.32;;;18.10;61.90;;;;;;4983402;28;20050;-45
2023/07/25 03:24:24;;;;;;;12.48;8.13;;;18.10;61.80;;;;;;4983294;28;20054;-45
2023/07/25 03:26:52;;;;;;;14.57;8.68;;;18.10;61.90;;;;;;4983176;28;20065;-46
2023/07/25 03:29:20;;;;;;;11.30;8.02;;;18.10;62.00;;;;;;4983413;28;20069;-44
2023/07/25 03:31:47;;;;;;;13.55;9.13;;;18.10;61.70;;;;;;4982090;28;20414;-44
2023/07/25 03:34:14;;;;;;;12.85;8.75;;;18.10;61.40;;;;;;4982992;28;20589;-44
2023/07/25 03:36:41;;;;;;;13.25;8.05;;;18.10;61.30;;;;;;4982833;28;20054;-52
2023/07/25 03:39:09;;;;;;;16.33;9.32;;;18.10;61.20;;;;;;4981866;28;20050;-48
2023/07/25 03:41:36;;;;;;;11.90;8.82;;;18.10;61.10;;;;;;4982315;28;20069;-50
2023/07/25 03:44:04;;;;;;;12.88;8.38;;;18.10;61.00;;;;;;4983496;28;20493;-48
2023/07/25 03:46:32;;;;;;;11.75;8.13;;;18.10;61.00;;;;;;4981415;28;20513;-47
2023/07/25 03:48:59;;;;;;;14.32;8.35;;;18.10;60.80;;;;;;4983055;28;20053;-48
2023/07/25 03:51:26;;;;;;;12.70;8.02;;;18.10;60.80;;;;;;4982547;28;20046;-48
2023/07/25 03:53:53;;;;;;;12.52;7.57;;;18.10;60.80;;;;;;4982644;28;20058;-44
2023/07/25 03:56:21;;;;;;;11.95;7.45;;;18.10;60.70;;;;;;4983519;28;20069;-44
2023/07/25 03:58:48;;;;;;;9.45;6.80;;;18.20;60.60;;;;;;4981715;28;20058;-49
2023/07/25 04:01:16;;;;;;;10.20;6.80;;;18.10;60.50;;;;;;4980388;28;20101;-48
2023/07/25 04:03:43;;;;;;;13.88;7.57;;;18.20;60.50;;;;;;4982198;28;20054;-48
2023/07/25 04:06:11;;;;;;;15.77;8.02;;;18.10;60.40;;;;;;4982589;28;20422;-49
2023/07/25 04:08:38;;;;;;;9.15;7.15;;;18.10;60.30;;;;;;4982334;28;20061;-45
2023/07/25 04:11:05;;;;;;;12.02;7.07;;;18.10;60.50;;;;;;4982304;28;20053;-47
2023/07/25 04:13:33;;;;;;;13.07;7.75;;;18.10;60.70;;;;;;4983421;28;20053;-46
2023/07/25 04:16:00;;;;;;;15.93;7.15;;;18.00;60.90;;;;;;4983213;28;20413;-45
2023/07/25 04:18:28;;;;;;;12.05;6.15;;;18.00;61.00;;;;;;4987925;28;20057;-47
2023/07/25 04:20:56;;;;;;;14.20;7.25;;;18.10;61.40;;;;;;4986546;28;20097;-46
2023/07/25 04:23:23;;;;;;;12.45;7.07;;;18.00;61.40;;;;;;4987027;28;20054;-44
2023/07/25 04:25:50;;;;;;;11.43;7.25;;;18.00;61.60;;;;;;4986959;28;20090;-51
2023/07/25 04:28:18;;;;;;;11.10;6.60;;;17.90;61.80;;;;;;4984440;28;20498;-48
2023/07/25 04:30:45;;;;;;;13.13;6.90;;;17.90;62.10;;;;;;4985327;28;20058;-56
2023/07/25 04:33:12;;;;;;;9.38;6.97;;;17.90;62.30;;;;;;4984855;28;20066;-53
2023/07/25 04:35:44;;;;;;;9.18;6.35;;;17.80;62.40;;;;;;4985263;28;20081;-54
2023/07/25 04:38:12;;;;;;;14.18;6.85;;;17.80;62.80;;;;;;4985754;28;20498;-57
2023/07/25 04:40:39;;;;;;;11.93;6.72;;;17.80;63.00;;;;;;4985628;28;20058;-56
2023/07/25 04:43:06;;;;;;;8.63;5.95;;;17.80;63.10;;;;;;4986222;28;20054;-57
2023/07/25 04:45:34;;;;;;;9.70;5.82;;;17.80;63.20;;;;;;4986317;28;20069;-56
2023/07/25 04:48:01;;;;;;;9.65;5.72;;;17.70;63.20;;;;;;4984926;28;20077;-51
2023/07/25 04:50:28;;;;;;;13.23;6.18;;;17.80;63.10;;;;;;4986349;28;20057;-51
2023/07/25 04:52:57;;;;;;;9.55;5.30;;;17.70;63.00;;;;;;4985800;28;20429;-55
2023/07/25 04:55:25;;;;;;;10.63;5.57;;;17.70;63.20;;;;;;4986264;28;20058;-57
2023/07/25 04:57:52;;;;;;;13.15;6.57;;;17.70;63.40;;;;;;4986780;28;20058;-56
2023/07/25 05:00:20;;;;;;;8.25;6.00;;;17.70;63.40;;;;;;4985080;28;20054;-48
2023/07/25 05:02:47;;;;;;;9.73;6.03;;;17.70;63.50;;;;;;4983980;28;20062;-53
2023/07/25 05:05:14;;;;;;;9.40;5.70;;;17.70;63.60;;;;;;4985936;28;20507;-56
2023/07/25 05:07:41;;;;;;;10.73;5.75;;;17.70;63.70;;;;;;4984999;28;20054;-56
2023/07/25 05:10:10;;;;;;;11.95;6.22;;;17.70;63.70;;;;;;4985186;28;20058;-56
2023/07/25 05:12:38;;;;;;;11.00;7.18;;;17.70;63.60;;;;;;4974404;28;20050;-57
2023/07/25 05:15:06;;;;;;;10.70;6.80;;;17.70;63.40;;;;;;4984998;28;20430;-57
2023/07/25 05:17:33;;;;;;;12.10;6.88;;;17.70;63.40;;;;;;4984655;28;20062;-55
2023/07/25 05:20:00;;;;;;;42.08;21.52;;;17.70;63.30;;;;;;4986127;28;20053;-56
2023/07/25 05:22:28;;;;;;;18.90;9.88;;;17.70;63.40;;;;;;4986311;28;20057;-57
2023/07/25 05:24:55;;;;;;;12.40;7.28;;;17.70;63.60;;;;;;4985679;28;20058;-56
2023/07/25 05:27:23;;;;;;;10.70;7.70;;;17.70;63.60;;;;;;4985203;28;20060;-56
2023/07/25 05:29:51;;;;;;;11.90;7.10;;;17.70;63.60;;;;;;4984799;28;20081;-57
2023/07/25 05:32:18;;;;;;;16.65;6.45;;;17.70;63.50;;;;;;4984272;28;20501;-56
2023/07/25 05:34:45;;;;;;;13.88;7.57;;;17.80;63.50;;;;;;4985090;28;20066;-56
2023/07/25 05:37:13;;;;;;;10.50;7.78;;;17.80;63.50;;;;;;4986911;28;20413;-57
2023/07/25 05:39:40;;;;;;;12.68;7.05;;;17.80;63.50;;;;;;4982950;28;20051;-57
2023/07/25 05:42:07;;;;;;;14.13;8.07;;;17.80;63.60;;;;;;4984822;28;20046;-51
2023/07/25 05:44:36;;;;;;;11.45;7.30;;;17.90;63.60;;;;;;4984748;28;20054;-55
2023/07/25 05:47:05;;;;;;;11.15;7.43;;;17.80;63.70;;;;;;4983256;28;20058;-57
2023/07/25 05:49:32;;;;;;;14.70;8.38;;;17.80;63.90;;;;;;4984920;28;20046;-53
2023/07/25 05:51:59;;;;;;;11.57;8.48;;;17.80;63.90;;;;;;4984248;28;20410;-56
2023/07/25 05:54:26;;;;;;;16.52;8.68;;;17.80;63.70;;;;;;4982457;28;20054;-55
2023/07/25 05:56:54;;;;;;;13.15;8.80;;;17.80;63.60;;;;;;4983592;28;20777;-57
2023/07/25 05:59:21;;;;;;;13.25;9.60;;;17.80;63.50;;;;;;4985048;28;20050;-57
2023/07/25 06:01:50;;;;;;;14.80;9.40;;;17.80;63.70;;;;;;4984370;28;20418;-57
2023/07/25 06:04:17;;;;;;;17.55;9.70;;;17.80;63.40;;;;;;4982922;28;20054;-57
2023/07/25 06:06:44;;;;;;;10.18;7.50;;;17.80;63.20;;;;;;4984481;28;20058;-50
2023/07/25 06:09:12;;;;;;;12.45;8.55;;;17.70;63.40;;;;;;4984270;28;20054;-51
2023/07/25 06:11:42;;;;;;;13.07;8.43;;;17.70;63.80;;;;;;4985503;28;20065;-57
2023/07/25 06:14:09;;;;;;;14.25;8.48;;;17.70;63.80;;;;;;4983929;28;20046;-53
2023/07/25 06:16:37;;;;;;;13.30;8.05;;;17.70;63.70;;;;;;4982300;28;20068;-53
2023/07/25 06:19:06;;;;;;;11.45;7.72;;;17.70;63.70;;;;;;4984073;28;20050;-57
2023/07/25 06:21:33;;;;;;;13.88;7.63;;;17.80;64.30;;;;;;4983826;28;20050;-53
2023/07/25 06:24:01;;;;;;;15.88;8.23;;;17.80;63.50;;;;;;4983240;28;20060;-53
2023/07/25 06:26:28;;;;;;;10.00;7.38;;;17.80;63.40;;;;;;4982855;28;20417;-51
2023/07/25 06:28:55;;;;;;;11.00;6.57;;;17.80;63.60;;;;;;4983946;28;20050;-52
2023/07/25 06:31:23;;;;;;;11.05;7.10;;;17.80;63.60;;;;;;4982981;28;20407;-53
2023/07/25 06:33:53;;;;;;;12.68;6.75;;;17.90;63.40;;;;;;4980511;28;20050;-54
2023/07/25 06:36:24;;;;;;;8.50;5.93;;;17.90;62.80;;;;;;4983636;28;20050;-55
2023/07/25 06:38:51;;;;;;;11.68;6.32;;;17.90;62.60;;;;;;4982728;28;20421;-56
2023/07/25 06:41:19;;;;;;;12.25;6.57;;;17.90;62.50;;;;;;4982453;28;20489;-57
2023/07/25 06:43:46;;;;;;;17.38;6.68;;;17.90;62.40;;;;;;4982165;28;20061;-56
2023/07/25 06:46:16;;;;;;;10.52;6.03;;;17.90;62.40;;;;;;4981322;28;20062;-57
2023/07/25 06:48:46;;;;;;;15.40;7.25;;;17.90;62.50;;;;;;4983521;28;20050;-55
2023/07/25 06:51:13;;;;;;;11.25;7.15;;;17.90;62.30;;;;;;4983532;28;20060;-45
2023/07/25 06:53:44;;;;;;;9.07;5.72;;;18.00;62.20;;;;;;4983359;28;20505;-45
2023/07/25 06:56:11;;;;;;;8.55;5.85;;;17.90;62.10;;;;;;4982359;28;20065;-43
2023/07/25 06:58:38;;;;;;;9.30;6.05;;;17.90;62.20;;;;;;4983567;28;20057;-44
2023/07/25 07:01:06;;;;;;;9.00;6.05;;;18.00;62.30;;;;;;4982138;28;20050;-49
2023/07/25 07:03:33;;;;;;;13.32;6.50;;;18.00;62.40;;;;;;4982691;28;20057;-45
2023/07/25 07:06:01;;;;;;;7.32;5.13;;;18.00;62.10;;;;;;4982015;28;20057;-49
2023/07/25 07:08:28;;;;;;;8.10;5.88;;;18.00;62.20;;;;;;4983817;28;20061;-48
2023/07/25 07:10:57;;;;;;;12.02;5.93;;;18.00;62.30;;;;;;4983808;28;20058;-47
2023/07/25 07:13:24;;;;;;;10.88;6.60;;;18.00;62.10;;;;;;4982664;28;20050;-43
2023/07/25 07:15:52;;;;;;;8.88;5.93;;;18.00;62.20;;;;;;4982045;28;20050;-45
2023/07/25 07:18:19;;;;;;;10.05;5.38;;;18.00;62.20;;;;;;4982578;28;20069;-51
2023/07/25 07:20:48;;;;;;;11.38;6.95;;;18.00;62.20;;;;;;4982460;28;20057;-49
2023/07/25 07:23:16;;;;;;;13.35;6.50;;;18.00;62.10;;;;;;4984017;28;20065;-46
2023/07/25 07:25:44;;;;;;;12.43;6.10;;;18.00;62.00;;;;;;4982778;28;20054;-44
2023/07/25 07:28:12;;;;;;;12.25;6.00;;;18.10;61.90;;;;;;4982337;28;20054;-50
2023/07/25 07:30:40;;;;;;;8.82;5.90;;;18.10;61.80;;;;;;4981448;28;20050;-46
2023/07/25 07:33:07;;;;;;;7.72;5.63;;;18.00;61.80;;;;;;4981227;28;20050;-45
2023/07/25 07:35:34;;;;;;;9.43;5.30;;;18.10;61.90;;;;;;4981907;28;20061;-50
2023/07/25 07:38:01;;;;;;;9.68;5.43;;;18.10;61.90;;;;;;4983444;28;20050;-51
2023/07/25 07:40:29;;;;;;;9.68;6.05;;;18.10;61.90;;;;;;4983324;28;20051;-44
2023/07/25 07:42:56;;;;;;;9.20;5.65;;;18.10;61.50;;;;;;4983400;28;20054;-51
2023/07/25 07:45:27;;;;;;;18.30;5.90;;;18.10;61.40;;;;;;4982316;28;20541;-46
2023/07/25 07:51:31;;;;;;;9.18;5.55;;;18.10;61.70;;;;;;4996126;28;20398;-43
2023/07/25 07:53:59;;;;;;;8.88;6.10;;;18.10;61.90;;;;;;4986188;28;20537;-51
2023/07/25 07:56:26;;;;;;;9.25;5.60;;;18.10;61.90;;;;;;4986179;28;20054;-45
2023/07/25 07:58:53;;;;;;;11.18;5.70;;;18.10;62.00;;;;;;4986255;28;20424;-44
2023/07/25 08:01:22;;;;;;;8.20;5.30;;;18.10;61.70;;;;;;4985011;28;20769;-47
2023/07/25 08:03:49;;;;;;;12.55;6.10;;;18.10;61.70;;;;;;4985413;28;20065;-47
2023/07/25 08:06:17;;;;;;;10.25;6.55;;;18.10;61.60;;;;;;4984058;28;20046;-42
2023/07/25 08:08:44;;;;;;;11.65;6.53;;;18.20;61.60;;;;;;4984046;28;20058;-43
2023/07/25 08:11:11;;;;;;;13.68;6.38;;;18.20;61.30;;;;;;4985441;28;20050;-50
2023/07/25 08:13:38;;;;;;;9.15;5.10;;;18.20;61.30;;;;;;4986328;28;20054;-42
2023/07/25 08:16:06;;;;;;;14.68;6.78;;;18.20;61.30;;;;;;4984393;28;20387;-48
2023/07/25 08:18:35;;;;;;;11.63;6.80;;;18.20;61.00;;;;;;4982772;28;20495;-44
2023/07/25 08:21:02;;;;;;;10.15;6.10;;;18.10;61.50;;;;;;4983592;28;20054;-45
2023/07/25 08:23:35;;;;;;;8.65;6.70;;;18.10;60.80;;;;;;4986283;28;20057;-57
2023/07/25 08:26:02;;;;;;;10.48;6.70;;;18.10;60.70;;;;;;4985928;28;20061;-49
2023/07/25 08:28:29;;;;;;;15.82;6.65;;;18.10;60.80;;;;;;4986306;28;20058;-52
2023/07/25 08:31:00;;;;;;;10.57;5.68;;;18.10;61.00;;;;;;4986262;28;20073;-51
2023/07/25 08:33:28;;;;;;;10.05;5.60;;;18.10;61.10;;;;;;4986248;28;20581;-54
2023/07/25 08:35:56;;;;;;;9.25;5.35;;;18.10;60.30;;;;;;4986820;28;20061;-49
2023/07/25 08:38:24;;;;;;;10.75;5.22;;;18.10;60.80;;;;;;4984748;28;20050;-50
2023/07/25 08:41:01;;;;;;;10.30;5.20;;;18.10;60.80;;;;;;4984307;28;20057;-49
2023/07/25 08:43:29;;;;;;;9.13;4.53;;;18.10;59.90;;;;;;4985582;28;20068;-46
2023/07/25 08:45:58;;;;;;;10.98;5.82;;;18.10;59.80;;;;;;4984487;28;20062;-57
2023/07/25 08:48:27;;;;;;;9.07;4.40;;;18.10;60.20;;;;;;4984201;28;20406;-57
2023/07/25 08:50:58;;;;;;;9.27;3.63;;;18.10;60.80;;;;;;4984443;28;20080;-50
2023/07/25 08:53:28;;;;;;;13.15;4.35;;;18.20;60.10;;;;;;4984974;28;20425;-54
2023/07/25 08:55:57;;;;;;;6.78;3.92;;;18.30;59.20;;;;;;4984412;28;20073;-47
2023/07/25 08:58:25;;;;;;;7.18;3.83;;;18.30;58.90;;;;;;4984488;28;20063;-46
2023/07/25 09:00:54;;;;;;;9.02;3.95;;;18.30;58.60;;;;;;4982986;28;20050;-46
2023/07/25 09:03:22;;;;;;;8.18;3.78;;;18.30;58.40;;;;;;4986216;28;20066;-47
2023/07/25 09:05:49;;;;;;;5.38;3.00;;;18.40;58.50;;;;;;4986734;28;20077;-48
2023/07/25 09:08:18;;;;;;;7.45;2.97;;;18.40;58.00;;;;;;4985205;28;20058;-48
2023/07/25 09:10:46;;;;;;;8.93;2.97;;;18.40;58.20;;;;;;4985534;28;20053;-46
2023/07/25 09:13:14;;;;;;;8.15;3.20;;;18.50;57.60;;;;;;4985657;28;20065;-42
2023/07/25 09:15:41;;;;;;;6.60;3.08;;;18.50;57.20;;;;;;4983697;28;20054;-43
2023/07/25 09:18:09;;;;;;;11.32;2.72;;;18.50;57.40;;;;;;4985293;28;20449;-44
2023/07/25 09:20:38;;;;;;;6.85;3.10;;;18.60;56.80;;;;;;4984644;28;20049;-45
2023/07/25 09:23:06;;;;;;;7.65;2.70;;;18.50;56.80;;;;;;4984230;28;20053;-49
2023/07/25 09:25:34;;;;;;;8.10;2.55;;;18.50;55.60;;;;;;4984127;28;20734;-41
2023/07/25 09:28:02;;;;;;;9.07;2.55;;;18.60;55.20;;;;;;4984104;28;20494;-46
2023/07/25 09:30:29;;;;;;;7.32;2.65;;;18.50;55.30;;;;;;4983688;28;20051;-43
2023/07/25 09:32:56;;;;;;;7.22;2.25;;;18.50;55.10;;;;;;4983628;28;20429;-46
2023/07/25 09:35:24;;;;;;;7.28;2.40;;;18.50;55.10;;;;;;4984348;28;20061;-42
2023/07/25 09:37:53;;;;;;;7.13;2.70;;;18.60;54.80;;;;;;4984554;28;20482;-44
2023/07/25 09:40:20;;;;;;;6.60;2.38;;;18.60;54.10;;;;;;4984213;28;20053;-43
2023/07/25 09:42:51;;;;;;;6.10;2.50;;;18.60;54.00;;;;;;4984609;28;20054;-48
2023/07/25 09:45:19;;;;;;;8.25;2.83;;;18.60;53.30;;;;;;4983880;28;20054;-46
2023/07/25 09:47:52;;;;;;;8.35;2.45;;;18.60;52.70;;;;;;4981834;28;20050;-44
2023/07/25 09:50:19;;;;;;;6.35;2.20;;;18.60;52.60;;;;;;4985737;28;20043;-45
2023/07/25 09:52:46;;;;;;;5.95;2.10;;;18.70;52.80;;;;;;4984027;28;20445;-44
2023/07/25 09:55:14;;;;;;;7.90;2.70;;;18.70;52.50;;;;;;4983622;28;20081;-40
2023/07/25 09:57:41;;;;;;;6.85;2.10;;;18.70;52.20;;;;;;4983862;28;20054;-43
2023/07/25 10:00:12;;;;;;;4.43;2.08;;;18.70;52.00;;;;;;4984064;28;20065;-41
2023/07/25 10:02:39;;;;;;;5.35;2.40;;;18.80;52.10;;;;;;4984543;28;20494;-42
2023/07/25 10:05:08;;;;;;;4.97;2.25;;;18.80;52.00;;;;;;4984356;28;20127;-43
2023/07/25 10:07:36;;;;;;;7.22;2.30;;;18.90;51.80;;;;;;4981646;28;20383;-45
2023/07/25 10:10:05;;;;;;;4.80;1.90;;;19.00;52.60;;;;;;4984633;28;20054;-44
2023/07/25 10:12:32;;;;;;;7.55;2.92;;;19.00;52.40;;;;;;4982081;28;20061;-44
2023/07/25 10:15:00;;;;;;;4.80;1.60;;;19.10;52.40;;;;;;4984211;28;20509;-41
2023/07/25 10:17:28;;;;;;;5.70;1.85;;;19.20;51.70;;;;;;4983459;28;20061;-42
2023/07/25 10:19:56;;;;;;;7.82;2.20;;;19.30;51.50;;;;;;4983383;28;20084;-41
2023/07/25 10:22:34;;;;;;;5.60;2.00;;;19.30;51.50;;;;;;4983309;28;20065;-42
2023/07/25 10:25:01;;;;;;;4.60;1.65;;;19.40;51.00;;;;;;4982582;28;20057;-44
2023/07/25 10:27:29;;;;;;;5.00;1.77;;;19.40;51.30;;;;;;4983978;28;20394;-41
2023/07/25 10:30:01;;;;;;;5.00;2.00;;;19.50;51.50;;;;;;4983821;28;20046;-43
2023/07/25 10:35:46;;;;;;;6.00;2.00;;;19.50;51.70;;;;;;5077236;27;21184;-41
2023/07/25 10:38:22;;;;;;;4.03;1.20;;;19.70;50.10;;;;;;5060891;28;20056;-41
2023/07/25 10:40:56;;;;;;;5.88;1.60;;;19.70;48.40;;;;;;5061980;28;20063;-40
2023/07/25 10:43:28;;;;;;;6.63;1.50;;;19.70;49.10;;;;;;5061794;28;20052;-43
2023/07/25 10:45:56;;;;;;;5.63;1.52;;;19.70;49.10;;;;;;5059268;28;20052;-39
2023/07/25 10:48:35;;;;;;;2.83;1.30;;;19.70;49.30;;;;;;5059924;28;20057;-40
2023/07/25 10:51:06;;;;;;;4.63;1.52;;;19.70;48.90;;;;;;5059836;28;20700;-41
2023/07/25 10:53:34;;;;;;;4.38;1.50;;;19.70;48.30;;;;;;5060370;28;20056;-42
2023/07/25 10:56:16;;;;;;;6.63;1.50;;;19.80;48.40;;;;;;5059608;28;20048;-41
2023/07/25 10:59:07;;;;;;;2.72;1.20;;;19.80;47.90;;;;;;5060101;28;20067;-41
2023/07/25 11:01:44;;;;;;;4.30;1.45;;;19.80;48.50;;;;;;5058454;28;20063;-41
2023/07/25 11:04:25;;;;;;;4.60;1.40;;;19.90;49.20;;;;;;5059539;28;20060;-44
2023/07/25 11:06:54;;;;;;;4.60;1.60;;;20.00;49.40;;;;;;5061248;28;20060;-41
2023/07/25 11:09:22;;;;;;;6.18;1.73;;;20.10;48.90;;;;;;5060061;28;20068;-42
2023/07/25 11:11:50;;;;;;;7.93;1.70;;;20.10;48.90;;;;;;5059992;28;20049;-41
2023/07/25 11:14:20;;;;;;;4.97;1.58;;;20.20;49.00;;;;;;5060284;28;20048;-45
2023/07/25 11:16:50;;;;;;;6.35;1.75;;;20.20;48.70;;;;;;5055903;28;20056;-39
2023/07/25 11:19:19;;;;;;;4.13;1.98;;;20.30;48.10;;;;;;5060179;28;20052;-40
2023/07/25 11:21:47;;;;;;;6.80;2.17;;;20.30;48.10;;;;;;5058690;28;20052;-43
2023/07/25 11:24:16;;;;;;;5.93;1.58;;;20.30;48.70;;;;;;5060059;28;20057;-46
2023/07/25 11:26:43;;;;;;;4.88;1.65;;;20.30;48.90;;;;;;5058283;28;20063;-45
2023/07/25 11:29:12;;;;;;;8.63;2.03;;;20.30;48.80;;;;;;5059428;28;20056;-40
2023/07/25 11:31:47;;;;;;;4.25;1.42;;;20.40;48.50;;;;;;5058268;28;20060;-46
2023/07/25 11:34:15;;;;;;;9.32;1.98;;;20.50;48.60;;;;;;5058183;28;20414;-53
2023/07/25 11:36:44;;;;;;;5.07;1.50;;;20.60;48.90;;;;;;5059912;28;20059;-44
2023/07/25 11:39:13;;;;;;;5.00;1.67;;;20.60;48.60;;;;;;5058013;28;20053;-44
2023/07/25 11:41:44;;;;;;;8.90;1.77;;;20.70;47.50;;;;;;5059202;28;20409;-44
2023/07/25 11:44:13;;;;;;;5.07;1.60;;;20.70;47.70;;;;;;5061085;28;20054;-48
2023/07/25 11:46:42;;;;;;;6.82;1.70;;;20.70;47.20;;;;;;5044203;28;20053;-51
2023/07/25 11:49:11;;;;;;;6.20;1.50;;;20.80;47.00;;;;;;5045940;28;20063;-56
2023/07/25 11:51:39;;;;;;;5.90;2.00;;;20.70;47.80;;;;;;5045977;28;20053;-49
2023/07/25 11:54:07;;;;;;;8.27;1.70;;;20.70;47.10;;;;;;5045342;28;20508;-46
2023/07/25 11:56:35;;;;;;;8.02;1.75;;;20.70;46.90;;;;;;5045477;28;20053;-47
2023/07/25 11:59:04;;;;;;;7.88;1.60;;;20.70;46.80;;;;;;5045234;28;20052;-45
2023/07/25 12:01:33;;;;;;;14.73;2.17;;;20.70;46.90;;;;;;5042694;28;20049;-46
2023/07/25 12:04:01;;;;;;;7.13;2.05;;;20.70;46.90;;;;;;5045866;28;20044;-44
2023/07/25 12:06:30;;;;;;;5.93;1.60;;;20.70;46.20;;;;;;5045661;28;20064;-55
2023/07/25 12:08:58;;;;;;;6.03;2.17;;;20.70;46.70;;;;;;5045436;28;20057;-54
2023/07/25 12:11:26;;;;;;;5.28;1.67;;;20.70;46.10;;;;;;5045816;28;20063;-48
2023/07/25 12:13:55;;;;;;;3.53;1.58;;;20.60;46.30;;;;;;5045028;28;20064;-49
2023/07/25 12:16:31;;;;;;;6.20;1.60;;;20.60;46.80;;;;;;5044605;28;20052;-46
2023/07/25 12:19:00;;;;;;;5.47;1.85;;;20.60;47.40;;;;;;5045896;28;20412;-51
2023/07/25 12:21:30;;;;;;;6.32;1.70;;;20.50;47.00;;;;;;5045792;28;20060;-45
2023/07/25 12:24:00;;;;;;;6.30;2.00;;;20.60;47.60;;;;;;5045305;28;20182;-45
2023/07/25 12:26:28;;;;;;;5.30;1.70;;;20.60;46.50;;;;;;5045554;28;20061;-46
2023/07/25 12:28:56;;;;;;;3.53;1.20;;;20.60;46.80;;;;;;5045317;28;20075;-50
2023/07/25 12:31:23;;;;;;;5.22;1.60;;;20.60;46.60;;;;;;5043463;28;20080;-49
2023/07/25 12:33:52;;;;;;;5.40;1.50;;;20.70;46.50;;;;;;5045201;28;20413;-46
2023/07/25 12:36:19;;;;;;;5.05;1.50;;;20.70;45.60;;;;;;5045088;28;20053;-50
2023/07/25 12:38:47;;;;;;;5.25;2.00;;;20.80;46.10;;;;;;5046535;28;20389;-45
2023/07/25 12:41:14;;;;;;;6.00;1.60;;;20.90;44.50;;;;;;5044968;28;20060;-43
2023/07/25 12:43:41;;;;;;;4.55;1.70;;;20.90;45.10;;;;;;5045745;28;20057;-56
2023/07/25 12:46:09;;;;;;;3.63;1.50;;;21.00;45.00;;;;;;5043242;28;20052;-47
2023/07/25 12:48:36;;;;;;;3.58;1.35;;;21.00;44.10;;;;;;5043839;28;20052;-45
2023/07/25 12:51:05;;;;;;;3.83;1.73;;;21.00;44.50;;;;;;5043761;28;20052;-55
2023/07/25 12:53:32;;;;;;;7.00;1.80;;;21.10;44.00;;;;;;5043877;28;20061;-46